sensor_id;sensor_type;location;lat;lon;timestamp;P1;durP1;ratioP1;P2;durP2;ratioP2
26219;SDS011;13955;55.574;37.474;2022-07-23T00:02:25;13.70;;;6.35;;
26219;SDS011;13955;55.574;37.474;2022-07-23T00:04:55;14.10;;;6.30;;
26219;SDS011;13955;55.574;37.474;2022-07-23T00:07:25;16.05;;;5.80;;
26219;SDS011;13955;55.574;37.474;2022-07-23T00:09:56;15.23;;;5.60;;
26219;SDS011;13955;55.574;37.474;2022-07-23T00:12:26;15.75;;;5.95;;
26219;SDS011;13955;55.574;37.474;2022-07-23T00:14:56;14.93;;;4.93;;
26219;SDS011;13955;55.574;37.474;2022-07-23T00:17:26;14.53;;;5.35;;
26219;SDS011;13955;55.574;37.474;2022-07-23T00:19:56;13.77;;;5.47;;
26219;SDS011;13955;55.574;37.474;2022-07-23T00:22:27;21.50;;;6.17;;
26219;SDS011;13955;55.574;37.474;2022-07-23T00:24:57;10.80;;;5.47;;
26219;SDS011;13955;55.574;37.474;2022-07-23T00:27:27;14.95;;;6.20;;
26219;SDS011;13955;55.574;37.474;2022-07-23T00:29:57;12.53;;;6.67;;
26219;SDS011;13955;55.574;37.474;2022-07-23T00:32:29;14.28;;;6.15;;
26219;SDS011;13955;55.574;37.474;2022-07-23T00:34:59;10.20;;;5.42;;
26219;SDS011;13955;55.574;37.474;2022-07-23T00:37:29;21.63;;;7.47;;
26219;SDS011;13955;55.574;37.474;2022-07-23T00:40:00;18.30;;;7.13;;
26219;SDS011;13955;55.574;37.474;2022-07-23T00:42:31;23.10;;;7.23;;
26219;SDS011;13955;55.574;37.474;2022-07-23T00:45:02;21.05;;;6.75;;
26219;SDS011;13955;55.574;37.474;2022-07-23T00:47:31;13.53;;;5.77;;
26219;SDS011;13955;55.574;37.474;2022-07-23T00:50:03;8.98;;;5.45;;
26219;SDS011;13955;55.574;37.474;2022-07-23T00:52:35;13.38;;;5.62;;
26219;SDS011;13955;55.574;37.474;2022-07-23T00:55:07;9.75;;;5.40;;
26219;SDS011;13955;55.574;37.474;2022-07-23T00:57:40;15.68;;;5.97;;
26219;SDS011;13955;55.574;37.474;2022-07-23T01:00:12;16.32;;;6.35;;
26219;SDS011;13955;55.574;37.474;2022-07-23T01:02:43;14.13;;;6.45;;
26219;SDS011;13955;55.574;37.474;2022-07-23T01:05:14;12.75;;;5.72;;
26219;SDS011;13955;55.574;37.474;2022-07-23T01:07:46;12.00;;;5.55;;
26219;SDS011;13955;55.574;37.474;2022-07-23T01:10:17;15.83;;;5.90;;
26219;SDS011;13955;55.574;37.474;2022-07-23T01:13:00;13.68;;;6.33;;
26219;SDS011;13955;55.574;37.474;2022-07-23T01:15:33;12.07;;;5.40;;
26219;SDS011;13955;55.574;37.474;2022-07-23T01:18:04;15.65;;;6.25;;
26219;SDS011;13955;55.574;37.474;2022-07-23T01:20:37;11.10;;;5.47;;
26219;SDS011;13955;55.574;37.474;2022-07-23T01:23:09;15.00;;;5.67;;
26219;SDS011;13955;55.574;37.474;2022-07-23T01:25:47;16.00;;;6.60;;
26219;SDS011;13955;55.574;37.474;2022-07-23T01:28:19;9.45;;;6.12;;
26219;SDS011;13955;55.574;37.474;2022-07-23T01:30:50;8.58;;;5.60;;
26219;SDS011;13955;55.574;37.474;2022-07-23T01:33:21;13.72;;;5.75;;
26219;SDS011;13955;55.574;37.474;2022-07-23T01:35:51;12.80;;;6.20;;
26219;SDS011;13955;55.574;37.474;2022-07-23T01:38:22;13.43;;;6.08;;
26219;SDS011;13955;55.574;37.474;2022-07-23T01:40:53;13.15;;;6.20;;
26219;SDS011;13955;55.574;37.474;2022-07-23T01:43:24;9.20;;;5.28;;
26219;SDS011;13955;55.574;37.474;2022-07-23T01:45:55;13.30;;;5.80;;
26219;SDS011;13955;55.574;37.474;2022-07-23T01:48:26;12.10;;;5.47;;
26219;SDS011;13955;55.574;37.474;2022-07-23T01:50:58;12.68;;;5.22;;
26219;SDS011;13955;55.574;37.474;2022-07-23T01:53:36;12.55;;;5.37;;
26219;SDS011;13955;55.574;37.474;2022-07-23T01:56:06;8.70;;;5.37;;
26219;SDS011;13955;55.574;37.474;2022-07-23T01:58:36;11.08;;;5.50;;
26219;SDS011;13955;55.574;37.474;2022-07-23T02:01:06;13.13;;;6.45;;
26219;SDS011;13955;55.574;37.474;2022-07-23T02:03:37;8.20;;;5.95;;
26219;SDS011;13955;55.574;37.474;2022-07-23T02:06:07;14.30;;;6.67;;
26219;SDS011;13955;55.574;37.474;2022-07-23T02:08:37;11.90;;;6.28;;
26219;SDS011;13955;55.574;37.474;2022-07-23T02:11:08;29.77;;;6.00;;
26219;SDS011;13955;55.574;37.474;2022-07-23T02:13:38;14.40;;;6.35;;
26219;SDS011;13955;55.574;37.474;2022-07-23T02:16:08;16.42;;;6.00;;
26219;SDS011;13955;55.574;37.474;2022-07-23T02:18:38;11.57;;;6.07;;
26219;SDS011;13955;55.574;37.474;2022-07-23T02:21:08;11.53;;;6.13;;
26219;SDS011;13955;55.574;37.474;2022-07-23T02:23:39;10.23;;;5.17;;
26219;SDS011;13955;55.574;37.474;2022-07-23T02:26:09;14.07;;;5.25;;
26219;SDS011;13955;55.574;37.474;2022-07-23T02:28:39;13.55;;;5.58;;
26219;SDS011;13955;55.574;37.474;2022-07-23T02:31:09;9.08;;;6.08;;
26219;SDS011;13955;55.574;37.474;2022-07-23T02:33:39;13.40;;;6.67;;
26219;SDS011;13955;55.574;37.474;2022-07-23T02:36:10;12.05;;;6.47;;
26219;SDS011;13955;55.574;37.474;2022-07-23T02:38:40;14.23;;;6.47;;
26219;SDS011;13955;55.574;37.474;2022-07-23T02:41:11;17.05;;;6.95;;
26219;SDS011;13955;55.574;37.474;2022-07-23T02:43:41;19.00;;;7.22;;
26219;SDS011;13955;55.574;37.474;2022-07-23T02:46:12;16.10;;;6.78;;
26219;SDS011;13955;55.574;37.474;2022-07-23T02:48:44;15.85;;;6.37;;
26219;SDS011;13955;55.574;37.474;2022-07-23T02:51:15;12.30;;;6.03;;
26219;SDS011;13955;55.574;37.474;2022-07-23T02:53:46;14.18;;;6.00;;
26219;SDS011;13955;55.574;37.474;2022-07-23T02:56:17;15.43;;;6.60;;
26219;SDS011;13955;55.574;37.474;2022-07-23T02:58:47;17.27;;;6.90;;
26219;SDS011;13955;55.574;37.474;2022-07-23T03:01:17;14.67;;;6.53;;
26219;SDS011;13955;55.574;37.474;2022-07-23T03:03:47;14.00;;;6.13;;
26219;SDS011;13955;55.574;37.474;2022-07-23T03:06:17;14.63;;;6.40;;
26219;SDS011;13955;55.574;37.474;2022-07-23T03:08:47;13.03;;;6.97;;
26219;SDS011;13955;55.574;37.474;2022-07-23T03:11:17;16.60;;;7.87;;
26219;SDS011;13955;55.574;37.474;2022-07-23T03:13:49;18.48;;;7.50;;
26219;SDS011;13955;55.574;37.474;2022-07-23T03:16:21;14.50;;;6.62;;
26219;SDS011;13955;55.574;37.474;2022-07-23T03:18:51;14.15;;;7.08;;
26219;SDS011;13955;55.574;37.474;2022-07-23T03:21:21;13.90;;;6.80;;
26219;SDS011;13955;55.574;37.474;2022-07-23T03:23:53;16.65;;;7.28;;
26219;SDS011;13955;55.574;37.474;2022-07-23T03:26:23;21.43;;;8.03;;
26219;SDS011;13955;55.574;37.474;2022-07-23T03:28:53;12.73;;;7.35;;
26219;SDS011;13955;55.574;37.474;2022-07-23T03:31:23;22.97;;;7.47;;
26219;SDS011;13955;55.574;37.474;2022-07-23T03:33:54;30.50;;;8.10;;
26219;SDS011;13955;55.574;37.474;2022-07-23T03:36:24;19.83;;;8.47;;
26219;SDS011;13955;55.574;37.474;2022-07-23T03:38:56;13.80;;;7.35;;
26219;SDS011;13955;55.574;37.474;2022-07-23T03:41:26;13.75;;;8.10;;
26219;SDS011;13955;55.574;37.474;2022-07-23T03:43:56;12.77;;;7.50;;
26219;SDS011;13955;55.574;37.474;2022-07-23T03:46:27;16.85;;;7.37;;
26219;SDS011;13955;55.574;37.474;2022-07-23T03:48:57;13.05;;;7.40;;
26219;SDS011;13955;55.574;37.474;2022-07-23T03:51:27;23.60;;;8.00;;
26219;SDS011;13955;55.574;37.474;2022-07-23T03:53:57;12.27;;;7.03;;
26219;SDS011;13955;55.574;37.474;2022-07-23T03:56:27;13.32;;;8.13;;
26219;SDS011;13955;55.574;37.474;2022-07-23T03:58:58;15.33;;;8.80;;
26219;SDS011;13955;55.574;37.474;2022-07-23T04:01:28;18.47;;;8.40;;
26219;SDS011;13955;55.574;37.474;2022-07-23T04:03:59;19.42;;;9.28;;
26219;SDS011;13955;55.574;37.474;2022-07-23T04:06:30;23.60;;;9.60;;
26219;SDS011;13955;55.574;37.474;2022-07-23T04:09:00;16.82;;;8.28;;
26219;SDS011;13955;55.574;37.474;2022-07-23T04:11:31;18.02;;;8.93;;
26219;SDS011;13955;55.574;37.474;2022-07-23T04:14:02;20.80;;;9.43;;
26219;SDS011;13955;55.574;37.474;2022-07-23T04:16:32;13.85;;;7.25;;
26219;SDS011;13955;55.574;37.474;2022-07-23T04:19:03;17.55;;;8.78;;
26219;SDS011;13955;55.574;37.474;2022-07-23T04:21:35;22.40;;;8.73;;
26219;SDS011;13955;55.574;37.474;2022-07-23T04:24:05;16.00;;;8.00;;
26219;SDS011;13955;55.574;37.474;2022-07-23T04:26:37;19.77;;;8.73;;
26219;SDS011;13955;55.574;37.474;2022-07-23T04:29:07;18.40;;;8.10;;
26219;SDS011;13955;55.574;37.474;2022-07-23T04:31:37;16.35;;;8.40;;
26219;SDS011;13955;55.574;37.474;2022-07-23T04:34:09;19.17;;;7.83;;
26219;SDS011;13955;55.574;37.474;2022-07-23T04:36:39;21.10;;;8.73;;
26219;SDS011;13955;55.574;37.474;2022-07-23T04:39:09;18.85;;;7.90;;
26219;SDS011;13955;55.574;37.474;2022-07-23T04:41:40;18.10;;;8.43;;
26219;SDS011;13955;55.574;37.474;2022-07-23T04:44:10;15.10;;;7.87;;
26219;SDS011;13955;55.574;37.474;2022-07-23T04:46:40;15.18;;;8.10;;
26219;SDS011;13955;55.574;37.474;2022-07-23T04:49:11;17.23;;;8.33;;
26219;SDS011;13955;55.574;37.474;2022-07-23T04:51:41;15.75;;;8.60;;
26219;SDS011;13955;55.574;37.474;2022-07-23T04:54:11;15.08;;;7.87;;
26219;SDS011;13955;55.574;37.474;2022-07-23T04:56:41;12.00;;;7.47;;
26219;SDS011;13955;55.574;37.474;2022-07-23T04:59:11;13.68;;;7.45;;
26219;SDS011;13955;55.574;37.474;2022-07-23T05:01:42;14.93;;;7.80;;
26219;SDS011;13955;55.574;37.474;2022-07-23T05:04:12;11.65;;;7.67;;
26219;SDS011;13955;55.574;37.474;2022-07-23T05:06:44;13.75;;;7.80;;
26219;SDS011;13955;55.574;37.474;2022-07-23T05:09:14;13.98;;;8.03;;
26219;SDS011;13955;55.574;37.474;2022-07-23T05:11:44;12.13;;;8.18;;
26219;SDS011;13955;55.574;37.474;2022-07-23T05:14:14;27.30;;;8.53;;
26219;SDS011;13955;55.574;37.474;2022-07-23T05:16:45;16.95;;;8.08;;
26219;SDS011;13955;55.574;37.474;2022-07-23T05:19:16;10.98;;;6.78;;
26219;SDS011;13955;55.574;37.474;2022-07-23T05:21:47;19.55;;;8.88;;
26219;SDS011;13955;55.574;37.474;2022-07-23T05:24:17;17.35;;;7.45;;
26219;SDS011;13955;55.574;37.474;2022-07-23T05:26:47;72.32;;;11.33;;
26219;SDS011;13955;55.574;37.474;2022-07-23T05:29:18;15.28;;;7.95;;
26219;SDS011;13955;55.574;37.474;2022-07-23T05:31:48;22.00;;;7.83;;
26219;SDS011;13955;55.574;37.474;2022-07-23T05:34:18;14.53;;;8.08;;
26219;SDS011;13955;55.574;37.474;2022-07-23T05:36:48;10.43;;;7.53;;
26219;SDS011;13955;55.574;37.474;2022-07-23T05:39:18;10.50;;;7.22;;
26219;SDS011;13955;55.574;37.474;2022-07-23T05:41:49;15.18;;;6.83;;
26219;SDS011;13955;55.574;37.474;2022-07-23T05:44:19;18.50;;;13.88;;
26219;SDS011;13955;55.574;37.474;2022-07-23T05:46:50;7.42;;;6.72;;
26219;SDS011;13955;55.574;37.474;2022-07-23T05:49:22;12.35;;;7.50;;
26219;SDS011;13955;55.574;37.474;2022-07-23T05:51:53;33.63;;;21.80;;
26219;SDS011;13955;55.574;37.474;2022-07-23T05:54:25;25.65;;;18.73;;
26219;SDS011;13955;55.574;37.474;2022-07-23T05:56:56;20.95;;;15.68;;
26219;SDS011;13955;55.574;37.474;2022-07-23T06:01:56;26.85;;;20.15;;
26219;SDS011;13955;55.574;37.474;2022-07-23T06:04:26;10.00;;;7.05;;
26219;SDS011;13955;55.574;37.474;2022-07-23T06:07:09;11.63;;;6.05;;
26219;SDS011;13955;55.574;37.474;2022-07-23T06:09:40;6.62;;;5.87;;
26219;SDS011;13955;55.574;37.474;2022-07-23T06:12:10;10.72;;;6.37;;
26219;SDS011;13955;55.574;37.474;2022-07-23T06:14:40;9.33;;;6.30;;
26219;SDS011;13955;55.574;37.474;2022-07-23T06:17:10;12.75;;;6.22;;
26219;SDS011;13955;55.574;37.474;2022-07-23T06:19:40;12.73;;;6.33;;
26219;SDS011;13955;55.574;37.474;2022-07-23T06:22:10;10.00;;;6.17;;
26219;SDS011;13955;55.574;37.474;2022-07-23T06:24:40;9.33;;;6.60;;
26219;SDS011;13955;55.574;37.474;2022-07-23T06:27:11;12.80;;;10.40;;
26219;SDS011;13955;55.574;37.474;2022-07-23T06:29:41;13.43;;;6.47;;
26219;SDS011;13955;55.574;37.474;2022-07-23T06:32:11;8.60;;;6.35;;
26219;SDS011;13955;55.574;37.474;2022-07-23T06:34:41;9.60;;;6.67;;
26219;SDS011;13955;55.574;37.474;2022-07-23T06:37:11;12.23;;;6.33;;
26219;SDS011;13955;55.574;37.474;2022-07-23T06:39:41;15.38;;;10.35;;
26219;SDS011;13955;55.574;37.474;2022-07-23T06:42:12;14.00;;;11.00;;
26219;SDS011;13955;55.574;37.474;2022-07-23T06:44:46;7.55;;;5.42;;
26219;SDS011;13955;55.574;37.474;2022-07-23T06:47:17;9.75;;;5.47;;
26219;SDS011;13955;55.574;37.474;2022-07-23T06:49:47;7.47;;;6.62;;
26219;SDS011;13955;55.574;37.474;2022-07-23T06:52:18;8.08;;;5.70;;
26219;SDS011;13955;55.574;37.474;2022-07-23T06:54:48;9.85;;;5.83;;
26219;SDS011;13955;55.574;37.474;2022-07-23T06:57:18;9.50;;;6.45;;
26219;SDS011;13955;55.574;37.474;2022-07-23T06:59:48;7.42;;;5.65;;
26219;SDS011;13955;55.574;37.474;2022-07-23T07:02:18;10.72;;;6.22;;
26219;SDS011;13955;55.574;37.474;2022-07-23T07:04:49;9.98;;;5.42;;
26219;SDS011;13955;55.574;37.474;2022-07-23T07:07:19;7.90;;;5.08;;
26219;SDS011;13955;55.574;37.474;2022-07-23T07:09:49;11.22;;;4.72;;
26219;SDS011;13955;55.574;37.474;2022-07-23T07:12:19;4.65;;;3.90;;
26219;SDS011;13955;55.574;37.474;2022-07-23T07:14:49;6.05;;;4.30;;
26219;SDS011;13955;55.574;37.474;2022-07-23T07:17:19;7.65;;;4.22;;
26219;SDS011;13955;55.574;37.474;2022-07-23T07:19:50;7.90;;;5.40;;
26219;SDS011;13955;55.574;37.474;2022-07-23T07:22:20;11.97;;;5.10;;
26219;SDS011;13955;55.574;37.474;2022-07-23T07:24:50;8.33;;;4.75;;
26219;SDS011;13955;55.574;37.474;2022-07-23T07:27:20;5.83;;;5.20;;
26219;SDS011;13955;55.574;37.474;2022-07-23T07:29:50;7.28;;;4.83;;
26219;SDS011;13955;55.574;37.474;2022-07-23T07:32:20;6.60;;;4.47;;
26219;SDS011;13955;55.574;37.474;2022-07-23T07:34:51;6.60;;;4.28;;
26219;SDS011;13955;55.574;37.474;2022-07-23T07:37:21;8.85;;;5.37;;
26219;SDS011;13955;55.574;37.474;2022-07-23T07:39:51;7.50;;;4.97;;
26219;SDS011;13955;55.574;37.474;2022-07-23T07:42:21;6.10;;;5.03;;
26219;SDS011;13955;55.574;37.474;2022-07-23T07:44:52;11.57;;;5.92;;
26219;SDS011;13955;55.574;37.474;2022-07-23T07:47:22;10.60;;;6.45;;
26219;SDS011;13955;55.574;37.474;2022-07-23T07:49:52;10.00;;;6.60;;
26219;SDS011;13955;55.574;37.474;2022-07-23T07:52:22;11.00;;;5.92;;
26219;SDS011;13955;55.574;37.474;2022-07-23T07:54:52;9.08;;;5.97;;
26219;SDS011;13955;55.574;37.474;2022-07-23T07:57:22;8.65;;;6.15;;
26219;SDS011;13955;55.574;37.474;2022-07-23T07:59:52;11.18;;;5.83;;
26219;SDS011;13955;55.574;37.474;2022-07-23T08:02:22;13.53;;;5.97;;
26219;SDS011;13955;55.574;37.474;2022-07-23T08:04:53;13.72;;;5.65;;
26219;SDS011;13955;55.574;37.474;2022-07-23T08:07:25;9.75;;;6.37;;
26219;SDS011;13955;55.574;37.474;2022-07-23T08:09:55;10.70;;;6.42;;
26219;SDS011;13955;55.574;37.474;2022-07-23T08:12:25;12.85;;;11.43;;
26219;SDS011;13955;55.574;37.474;2022-07-23T08:14:55;10.18;;;6.37;;
26219;SDS011;13955;55.574;37.474;2022-07-23T08:17:25;7.92;;;6.55;;
26219;SDS011;13955;55.574;37.474;2022-07-23T08:19:55;9.75;;;7.00;;
26219;SDS011;13955;55.574;37.474;2022-07-23T08:22:25;16.15;;;9.15;;
26219;SDS011;13955;55.574;37.474;2022-07-23T08:24:58;14.73;;;11.18;;
26219;SDS011;13955;55.574;37.474;2022-07-23T08:27:28;15.93;;;11.68;;
26219;SDS011;13955;55.574;37.474;2022-07-23T08:29:59;7.58;;;6.37;;
26219;SDS011;13955;55.574;37.474;2022-07-23T08:32:29;9.50;;;6.45;;
26219;SDS011;13955;55.574;37.474;2022-07-23T08:34:59;10.80;;;6.70;;
26219;SDS011;13955;55.574;37.474;2022-07-23T08:37:29;13.50;;;7.65;;
26219;SDS011;13955;55.574;37.474;2022-07-23T08:39:59;8.35;;;6.75;;
26219;SDS011;13955;55.574;37.474;2022-07-23T08:42:30;10.00;;;6.50;;
26219;SDS011;13955;55.574;37.474;2022-07-23T08:45:03;8.85;;;6.35;;
26219;SDS011;13955;55.574;37.474;2022-07-23T08:47:36;14.13;;;6.47;;
26219;SDS011;13955;55.574;37.474;2022-07-23T08:50:07;11.73;;;6.95;;
26219;SDS011;13955;55.574;37.474;2022-07-23T08:52:37;15.95;;;9.33;;
26219;SDS011;13955;55.574;37.474;2022-07-23T08:55:09;9.53;;;6.67;;
26219;SDS011;13955;55.574;37.474;2022-07-23T08:57:39;7.55;;;6.40;;
26219;SDS011;13955;55.574;37.474;2022-07-23T09:00:09;13.75;;;6.80;;
26219;SDS011;13955;55.574;37.474;2022-07-23T09:02:41;9.95;;;6.65;;
26219;SDS011;13955;55.574;37.474;2022-07-23T09:05:12;9.60;;;6.47;;
26219;SDS011;13955;55.574;37.474;2022-07-23T09:10:43;8.85;;;6.70;;
26219;SDS011;13955;55.574;37.474;2022-07-23T09:16:09;11.68;;;6.30;;
26219;SDS011;13955;55.574;37.474;2022-07-23T09:18:48;11.48;;;6.53;;
26219;SDS011;13955;55.574;37.474;2022-07-23T09:21:24;8.85;;;6.40;;
26219;SDS011;13955;55.574;37.474;2022-07-23T09:24:06;7.37;;;6.65;;
26219;SDS011;13955;55.574;37.474;2022-07-23T09:26:44;10.10;;;6.47;;
26219;SDS011;13955;55.574;37.474;2022-07-23T09:29:19;8.13;;;6.30;;
26219;SDS011;13955;55.574;37.474;2022-07-23T09:32:00;9.73;;;6.33;;
26219;SDS011;13955;55.574;37.474;2022-07-23T09:34:34;7.72;;;6.05;;
26219;SDS011;13955;55.574;37.474;2022-07-23T17:15:17;8.48;;;5.75;;
26219;SDS011;13955;55.574;37.474;2022-07-23T17:20:30;7.87;;;6.20;;
26219;SDS011;13955;55.574;37.474;2022-07-23T17:23:00;6.97;;;6.08;;
26219;SDS011;13955;55.574;37.474;2022-07-23T17:29:30;10.32;;;6.60;;
26219;SDS011;13955;55.574;37.474;2022-07-23T17:32:00;12.18;;;6.92;;
26219;SDS011;13955;55.574;37.474;2022-07-23T17:34:30;15.93;;;7.72;;
26219;SDS011;13955;55.574;37.474;2022-07-23T17:37:00;14.55;;;6.65;;
26219;SDS011;13955;55.574;37.474;2022-07-23T17:39:30;13.40;;;7.33;;
26219;SDS011;13955;55.574;37.474;2022-07-23T17:42:01;13.35;;;7.35;;
26219;SDS011;13955;55.574;37.474;2022-07-23T17:44:31;13.18;;;7.22;;
26219;SDS011;13955;55.574;37.474;2022-07-23T17:47:01;13.60;;;6.80;;
26219;SDS011;13955;55.574;37.474;2022-07-23T17:49:32;16.40;;;6.70;;
26219;SDS011;13955;55.574;37.474;2022-07-23T17:52:03;11.90;;;6.78;;
26219;SDS011;13955;55.574;37.474;2022-07-23T17:54:34;10.40;;;6.55;;
26219;SDS011;13955;55.574;37.474;2022-07-23T17:57:04;12.65;;;6.30;;
26219;SDS011;13955;55.574;37.474;2022-07-23T17:59:34;17.62;;;8.08;;
26219;SDS011;13955;55.574;37.474;2022-07-23T18:02:04;9.60;;;6.45;;
26219;SDS011;13955;55.574;37.474;2022-07-23T18:04:35;9.88;;;5.95;;
26219;SDS011;13955;55.574;37.474;2022-07-23T18:07:05;13.13;;;7.00;;
26219;SDS011;13955;55.574;37.474;2022-07-23T18:09:35;14.47;;;7.80;;
26219;SDS011;13955;55.574;37.474;2022-07-23T18:12:05;17.70;;;7.65;;
26219;SDS011;13955;55.574;37.474;2022-07-23T18:14:36;16.27;;;7.08;;
26219;SDS011;13955;55.574;37.474;2022-07-23T18:17:06;14.45;;;7.22;;
26219;SDS011;13955;55.574;37.474;2022-07-23T18:19:36;10.78;;;7.55;;
26219;SDS011;13955;55.574;37.474;2022-07-23T18:22:07;12.37;;;8.65;;
26219;SDS011;13955;55.574;37.474;2022-07-23T18:24:38;8.60;;;6.15;;
26219;SDS011;13955;55.574;37.474;2022-07-23T18:27:08;13.18;;;5.67;;
26219;SDS011;13955;55.574;37.474;2022-07-23T18:29:38;8.18;;;7.37;;
26219;SDS011;13955;55.574;37.474;2022-07-23T18:32:08;10.38;;;6.62;;
26219;SDS011;13955;55.574;37.474;2022-07-23T18:34:41;10.82;;;6.92;;
26219;SDS011;13955;55.574;37.474;2022-07-23T18:37:10;10.15;;;6.72;;
26219;SDS011;13955;55.574;37.474;2022-07-23T18:39:40;10.63;;;7.40;;
26219;SDS011;13955;55.574;37.474;2022-07-23T18:44:40;12.73;;;7.75;;
26219;SDS011;13955;55.574;37.474;2022-07-23T18:47:10;11.43;;;7.53;;
26219;SDS011;13955;55.574;37.474;2022-07-23T18:49:41;19.23;;;8.33;;
26219;SDS011;13955;55.574;37.474;2022-07-23T18:52:11;13.85;;;7.72;;
26219;SDS011;13955;55.574;37.474;2022-07-23T18:54:42;14.93;;;7.10;;
26219;SDS011;13955;55.574;37.474;2022-07-23T18:59:42;11.28;;;7.95;;
26219;SDS011;13955;55.574;37.474;2022-07-23T19:02:12;13.22;;;7.50;;
26219;SDS011;13955;55.574;37.474;2022-07-23T19:04:43;10.75;;;7.03;;
26219;SDS011;13955;55.574;37.474;2022-07-23T19:07:13;11.78;;;7.20;;
26219;SDS011;13955;55.574;37.474;2022-07-23T19:09:43;12.60;;;7.05;;
26219;SDS011;13955;55.574;37.474;2022-07-23T19:12:13;10.60;;;7.05;;
26219;SDS011;13955;55.574;37.474;2022-07-23T19:14:44;13.62;;;7.70;;
26219;SDS011;13955;55.574;37.474;2022-07-23T19:17:14;13.48;;;8.08;;
26219;SDS011;13955;55.574;37.474;2022-07-23T19:19:44;14.00;;;6.80;;
26219;SDS011;13955;55.574;37.474;2022-07-23T19:22:14;12.95;;;7.12;;
26219;SDS011;13955;55.574;37.474;2022-07-23T19:24:44;9.60;;;7.83;;
26219;SDS011;13955;55.574;37.474;2022-07-23T19:27:15;12.18;;;6.85;;
26219;SDS011;13955;55.574;37.474;2022-07-23T19:29:45;14.10;;;7.03;;
26219;SDS011;13955;55.574;37.474;2022-07-23T19:32:15;12.70;;;7.53;;
26219;SDS011;13955;55.574;37.474;2022-07-23T19:34:45;11.05;;;7.20;;
26219;SDS011;13955;55.574;37.474;2022-07-23T19:37:16;10.03;;;7.00;;
26219;SDS011;13955;55.574;37.474;2022-07-23T19:39:46;9.73;;;6.08;;
26219;SDS011;13955;55.574;37.474;2022-07-23T19:42:16;9.98;;;6.60;;
26219;SDS011;13955;55.574;37.474;2022-07-23T19:44:46;11.18;;;7.15;;
26219;SDS011;13955;55.574;37.474;2022-07-23T19:47:16;13.00;;;7.00;;
26219;SDS011;13955;55.574;37.474;2022-07-23T19:49:46;14.45;;;7.10;;
26219;SDS011;13955;55.574;37.474;2022-07-23T19:52:17;10.75;;;7.33;;
26219;SDS011;13955;55.574;37.474;2022-07-23T19:54:47;9.98;;;7.28;;
26219;SDS011;13955;55.574;37.474;2022-07-23T19:57:17;8.90;;;6.72;;
26219;SDS011;13955;55.574;37.474;2022-07-23T19:59:47;11.65;;;7.60;;
26219;SDS011;13955;55.574;37.474;2022-07-23T20:02:17;10.58;;;8.25;;
26219;SDS011;13955;55.574;37.474;2022-07-23T20:04:47;15.90;;;7.75;;
26219;SDS011;13955;55.574;37.474;2022-07-23T20:07:18;11.63;;;6.53;;
26219;SDS011;13955;55.574;37.474;2022-07-23T20:09:48;10.43;;;7.65;;
26219;SDS011;13955;55.574;37.474;2022-07-23T20:12:18;12.75;;;7.78;;
26219;SDS011;13955;55.574;37.474;2022-07-23T20:14:48;10.85;;;7.28;;
26219;SDS011;13955;55.574;37.474;2022-07-23T20:17:18;16.15;;;7.30;;
26219;SDS011;13955;55.574;37.474;2022-07-23T20:19:49;17.57;;;7.60;;
26219;SDS011;13955;55.574;37.474;2022-07-23T20:22:19;18.95;;;10.53;;
26219;SDS011;13955;55.574;37.474;2022-07-23T20:24:49;27.50;;;11.90;;
26219;SDS011;13955;55.574;37.474;2022-07-23T20:27:19;20.72;;;13.00;;
26219;SDS011;13955;55.574;37.474;2022-07-23T20:29:49;22.82;;;11.63;;
26219;SDS011;13955;55.574;37.474;2022-07-23T20:32:19;23.95;;;11.78;;
26219;SDS011;13955;55.574;37.474;2022-07-23T20:34:50;16.35;;;9.80;;
26219;SDS011;13955;55.574;37.474;2022-07-23T20:37:20;13.58;;;7.22;;
26219;SDS011;13955;55.574;37.474;2022-07-23T20:39:51;13.13;;;6.62;;
26219;SDS011;13955;55.574;37.474;2022-07-23T20:42:21;12.70;;;7.67;;
26219;SDS011;13955;55.574;37.474;2022-07-23T20:44:51;14.03;;;7.12;;
26219;SDS011;13955;55.574;37.474;2022-07-23T20:47:21;13.08;;;6.50;;
26219;SDS011;13955;55.574;37.474;2022-07-23T20:49:51;13.10;;;7.37;;
26219;SDS011;13955;55.574;37.474;2022-07-23T20:52:21;12.37;;;7.33;;
26219;SDS011;13955;55.574;37.474;2022-07-23T20:54:52;13.20;;;7.78;;
26219;SDS011;13955;55.574;37.474;2022-07-23T20:57:22;11.53;;;8.13;;
26219;SDS011;13955;55.574;37.474;2022-07-23T20:59:52;10.10;;;7.00;;
26219;SDS011;13955;55.574;37.474;2022-07-23T21:02:23;14.03;;;8.00;;
26219;SDS011;13955;55.574;37.474;2022-07-23T21:04:53;15.70;;;7.53;;
26219;SDS011;13955;55.574;37.474;2022-07-23T21:07:23;18.95;;;8.05;;
26219;SDS011;13955;55.574;37.474;2022-07-23T21:09:53;12.70;;;8.23;;
26219;SDS011;13955;55.574;37.474;2022-07-23T21:12:23;18.45;;;8.60;;
26219;SDS011;13955;55.574;37.474;2022-07-23T21:14:54;18.90;;;8.28;;
26219;SDS011;13955;55.574;37.474;2022-07-23T21:17:25;9.98;;;7.37;;
26219;SDS011;13955;55.574;37.474;2022-07-23T21:19:55;10.72;;;7.75;;
26219;SDS011;13955;55.574;37.474;2022-07-23T21:22:25;15.23;;;8.30;;
26219;SDS011;13955;55.574;37.474;2022-07-23T21:24:55;15.38;;;9.10;;
26219;SDS011;13955;55.574;37.474;2022-07-23T21:27:25;15.95;;;8.45;;
26219;SDS011;13955;55.574;37.474;2022-07-23T21:29:55;16.17;;;8.80;;
26219;SDS011;13955;55.574;37.474;2022-07-23T21:32:25;11.85;;;7.87;;
26219;SDS011;13955;55.574;37.474;2022-07-23T21:34:56;19.32;;;9.03;;
26219;SDS011;13955;55.574;37.474;2022-07-23T21:37:26;15.10;;;9.18;;
26219;SDS011;13955;55.574;37.474;2022-07-23T21:39:56;10.63;;;7.95;;
26219;SDS011;13955;55.574;37.474;2022-07-23T21:42:26;13.28;;;8.30;;
26219;SDS011;13955;55.574;37.474;2022-07-23T21:44:56;17.73;;;8.65;;
26219;SDS011;13955;55.574;37.474;2022-07-23T21:47:26;16.77;;;8.95;;
26219;SDS011;13955;55.574;37.474;2022-07-23T21:49:57;16.57;;;8.48;;
26219;SDS011;13955;55.574;37.474;2022-07-23T21:52:27;15.03;;;8.83;;
26219;SDS011;13955;55.574;37.474;2022-07-23T21:54:58;15.65;;;9.48;;
26219;SDS011;13955;55.574;37.474;2022-07-23T21:57:29;14.15;;;8.65;;
26219;SDS011;13955;55.574;37.474;2022-07-23T21:59:59;14.98;;;9.10;;
26219;SDS011;13955;55.574;37.474;2022-07-23T22:02:31;21.40;;;10.13;;
26219;SDS011;13955;55.574;37.474;2022-07-23T22:05:01;14.47;;;8.75;;
26219;SDS011;13955;55.574;37.474;2022-07-23T22:07:31;20.23;;;9.88;;
26219;SDS011;13955;55.574;37.474;2022-07-23T22:10:01;18.85;;;9.78;;
26219;SDS011;13955;55.574;37.474;2022-07-23T22:15:01;13.83;;;9.35;;
26219;SDS011;13955;55.574;37.474;2022-07-23T22:17:31;16.05;;;8.18;;
26219;SDS011;13955;55.574;37.474;2022-07-23T22:20:02;19.20;;;9.83;;
26219;SDS011;13955;55.574;37.474;2022-07-23T22:22:33;14.78;;;9.58;;
26219;SDS011;13955;55.574;37.474;2022-07-23T22:25:04;16.70;;;9.80;;
26219;SDS011;13955;55.574;37.474;2022-07-23T22:27:34;17.17;;;10.45;;
26219;SDS011;13955;55.574;37.474;2022-07-23T22:30:05;16.30;;;10.65;;
26219;SDS011;13955;55.574;37.474;2022-07-23T22:32:37;20.23;;;10.70;;
26219;SDS011;13955;55.574;37.474;2022-07-23T22:35:07;27.15;;;19.27;;
26219;SDS011;13955;55.574;37.474;2022-07-23T22:37:38;23.52;;;11.53;;
26219;SDS011;13955;55.574;37.474;2022-07-23T22:40:09;18.15;;;9.55;;
26219;SDS011;13955;55.574;37.474;2022-07-23T22:42:40;13.95;;;8.95;;
26219;SDS011;13955;55.574;37.474;2022-07-23T22:47:40;19.62;;;9.43;;